sensor_id;sensor_type;location;lat;lon;timestamp;P1;durP1;ratioP1;P2;durP2;ratioP2
6033;SDS011;3045;43.226;27.858;2022-10-23T00:00:14;14.47;;;12.07;;
6033;SDS011;3045;43.226;27.858;2022-10-23T00:02:41;16.13;;;12.00;;
6033;SDS011;3045;43.226;27.858;2022-10-23T00:05:09;14.40;;;12.33;;
6033;SDS011;3045;43.226;27.858;2022-10-23T00:07:36;19.17;;;11.77;;
6033;SDS011;3045;43.226;27.858;2022-10-23T00:10:04;14.30;;;11.33;;
6033;SDS011;3045;43.226;27.858;2022-10-23T00:12:31;12.57;;;11.57;;
6033;SDS011;3045;43.226;27.858;2022-10-23T00:14:58;11.60;;;10.37;;
6033;SDS011;3045;43.226;27.858;2022-10-23T00:17:25;12.13;;;10.40;;
6033;SDS011;3045;43.226;27.858;2022-10-23T00:19:52;10.60;;;9.53;;
6033;SDS011;3045;43.226;27.858;2022-10-23T00:22:20;14.53;;;11.47;;
6033;SDS011;3045;43.226;27.858;2022-10-23T00:24:47;14.77;;;13.00;;
6033;SDS011;3045;43.226;27.858;2022-10-23T00:27:14;13.10;;;11.60;;
6033;SDS011;3045;43.226;27.858;2022-10-23T00:29:42;14.73;;;11.33;;
6033;SDS011;3045;43.226;27.858;2022-10-23T00:32:09;13.27;;;11.10;;
6033;SDS011;3045;43.226;27.858;2022-10-23T00:34:36;16.67;;;10.90;;
6033;SDS011;3045;43.226;27.858;2022-10-23T00:37:03;16.83;;;10.90;;
6033;SDS011;3045;43.226;27.858;2022-10-23T00:39:31;12.33;;;11.37;;
6033;SDS011;3045;43.226;27.858;2022-10-23T00:41:58;17.70;;;10.57;;
6033;SDS011;3045;43.226;27.858;2022-10-23T00:47:29;12.70;;;11.40;;
6033;SDS011;3045;43.226;27.858;2022-10-23T00:49:56;15.17;;;10.87;;
6033;SDS011;3045;43.226;27.858;2022-10-23T00:52:25;12.13;;;10.93;;
6033;SDS011;3045;43.226;27.858;2022-10-23T00:54:54;13.20;;;10.00;;
6033;SDS011;3045;43.226;27.858;2022-10-23T00:57:22;12.50;;;10.37;;
6033;SDS011;3045;43.226;27.858;2022-10-23T00:59:49;12.17;;;10.97;;
6033;SDS011;3045;43.226;27.858;2022-10-23T01:02:16;17.10;;;10.70;;
6033;SDS011;3045;43.226;27.858;2022-10-23T01:04:43;15.93;;;10.37;;
6033;SDS011;3045;43.226;27.858;2022-10-23T01:07:11;10.90;;;9.60;;
6033;SDS011;3045;43.226;27.858;2022-10-23T01:09:44;11.23;;;10.33;;
6033;SDS011;3045;43.226;27.858;2022-10-23T01:12:22;11.50;;;10.53;;
6033;SDS011;3045;43.226;27.858;2022-10-23T01:15:00;10.13;;;9.33;;
6033;SDS011;3045;43.226;27.858;2022-10-23T01:17:35;12.53;;;10.33;;
6033;SDS011;3045;43.226;27.858;2022-10-23T01:20:13;12.93;;;10.30;;
6033;SDS011;3045;43.226;27.858;2022-10-23T01:23:04;11.47;;;10.27;;
6033;SDS011;3045;43.226;27.858;2022-10-23T01:25:56;16.53;;;10.33;;
6033;SDS011;3045;43.226;27.858;2022-10-23T01:28:33;22.23;;;10.70;;
6033;SDS011;3045;43.226;27.858;2022-10-23T01:31:06;11.77;;;10.67;;
6033;SDS011;3045;43.226;27.858;2022-10-23T01:33:40;19.43;;;10.60;;
6033;SDS011;3045;43.226;27.858;2022-10-23T01:36:11;15.40;;;11.20;;
6033;SDS011;3045;43.226;27.858;2022-10-23T01:38:41;14.53;;;11.67;;
6033;SDS011;3045;43.226;27.858;2022-10-23T01:41:12;14.83;;;10.07;;
6033;SDS011;3045;43.226;27.858;2022-10-23T01:43:45;14.53;;;10.67;;
6033;SDS011;3045;43.226;27.858;2022-10-23T01:46:18;18.23;;;10.07;;
6033;SDS011;3045;43.226;27.858;2022-10-23T01:48:47;12.23;;;10.47;;
6033;SDS011;3045;43.226;27.858;2022-10-23T01:51:17;13.67;;;10.27;;
6033;SDS011;3045;43.226;27.858;2022-10-23T01:53:47;15.43;;;11.23;;
6033;SDS011;3045;43.226;27.858;2022-10-23T01:56:18;20.70;;;12.40;;
6033;SDS011;3045;43.226;27.858;2022-10-23T01:58:50;27.17;;;13.67;;
6033;SDS011;3045;43.226;27.858;2022-10-23T02:01:19;17.30;;;12.60;;
6033;SDS011;3045;43.226;27.858;2022-10-23T02:03:48;22.67;;;12.27;;
6033;SDS011;3045;43.226;27.858;2022-10-23T02:06:16;17.10;;;10.13;;
6033;SDS011;3045;43.226;27.858;2022-10-23T02:08:43;13.93;;;10.33;;
6033;SDS011;3045;43.226;27.858;2022-10-23T02:11:12;15.77;;;10.43;;
6033;SDS011;3045;43.226;27.858;2022-10-23T02:13:41;13.20;;;9.93;;
6033;SDS011;3045;43.226;27.858;2022-10-23T02:16:14;11.47;;;8.80;;
6033;SDS011;3045;43.226;27.858;2022-10-23T02:18:50;10.60;;;9.63;;
6033;SDS011;3045;43.226;27.858;2022-10-23T02:21:22;10.73;;;9.70;;
6033;SDS011;3045;43.226;27.858;2022-10-23T02:23:58;10.60;;;9.83;;
6033;SDS011;3045;43.226;27.858;2022-10-23T02:26:29;10.63;;;9.43;;
6033;SDS011;3045;43.226;27.858;2022-10-23T02:29:00;11.17;;;9.23;;
6033;SDS011;3045;43.226;27.858;2022-10-23T02:31:34;11.13;;;9.07;;
6033;SDS011;3045;43.226;27.858;2022-10-23T02:34:01;16.53;;;14.80;;
6033;SDS011;3045;43.226;27.858;2022-10-23T02:36:28;27.47;;;18.53;;
6033;SDS011;3045;43.226;27.858;2022-10-23T02:38:55;15.20;;;13.40;;
6033;SDS011;3045;43.226;27.858;2022-10-23T02:41:28;20.80;;;16.70;;
6033;SDS011;3045;43.226;27.858;2022-10-23T02:44:06;23.53;;;16.20;;
6033;SDS011;3045;43.226;27.858;2022-10-23T02:46:46;26.00;;;19.47;;
6033;SDS011;3045;43.226;27.858;2022-10-23T02:49:19;21.07;;;15.20;;
6033;SDS011;3045;43.226;27.858;2022-10-23T02:51:54;27.37;;;20.37;;
6033;SDS011;3045;43.226;27.858;2022-10-23T02:54:31;34.63;;;27.30;;
6033;SDS011;3045;43.226;27.858;2022-10-23T02:57:10;37.03;;;26.93;;
6033;SDS011;3045;43.226;27.858;2022-10-23T02:59:45;30.40;;;20.70;;
6033;SDS011;3045;43.226;27.858;2022-10-23T03:02:20;30.43;;;20.77;;
6033;SDS011;3045;43.226;27.858;2022-10-23T03:04:51;30.53;;;23.73;;
6033;SDS011;3045;43.226;27.858;2022-10-23T03:07:19;30.57;;;23.80;;
6033;SDS011;3045;43.226;27.858;2022-10-23T03:09:47;34.67;;;23.40;;
6033;SDS011;3045;43.226;27.858;2022-10-23T03:12:14;28.50;;;22.00;;
6033;SDS011;3045;43.226;27.858;2022-10-23T03:14:41;26.13;;;22.50;;
6033;SDS011;3045;43.226;27.858;2022-10-23T03:17:08;22.23;;;17.93;;
6033;SDS011;3045;43.226;27.858;2022-10-23T03:19:36;22.30;;;18.47;;
6033;SDS011;3045;43.226;27.858;2022-10-23T03:22:06;21.50;;;17.30;;
6033;SDS011;3045;43.226;27.858;2022-10-23T03:24:33;29.43;;;14.90;;
6033;SDS011;3045;43.226;27.858;2022-10-23T03:27:03;17.83;;;13.93;;
6033;SDS011;3045;43.226;27.858;2022-10-23T03:29:29;14.27;;;12.33;;
6033;SDS011;3045;43.226;27.858;2022-10-23T03:31:56;16.10;;;11.10;;
6033;SDS011;3045;43.226;27.858;2022-10-23T03:34:26;17.17;;;11.30;;
6033;SDS011;3045;43.226;27.858;2022-10-23T03:36:55;11.90;;;10.90;;
6033;SDS011;3045;43.226;27.858;2022-10-23T03:39:24;14.57;;;11.17;;
6033;SDS011;3045;43.226;27.858;2022-10-23T03:41:51;15.50;;;11.30;;
6033;SDS011;3045;43.226;27.858;2022-10-23T03:44:18;13.83;;;11.63;;
6033;SDS011;3045;43.226;27.858;2022-10-23T03:46:45;13.93;;;12.27;;
6033;SDS011;3045;43.226;27.858;2022-10-23T03:49:14;12.00;;;10.90;;
6033;SDS011;3045;43.226;27.858;2022-10-23T03:51:40;14.27;;;11.53;;
6033;SDS011;3045;43.226;27.858;2022-10-23T03:54:10;12.47;;;11.20;;
6033;SDS011;3045;43.226;27.858;2022-10-23T03:56:37;11.90;;;10.47;;
6033;SDS011;3045;43.226;27.858;2022-10-23T03:59:04;11.57;;;10.60;;
6033;SDS011;3045;43.226;27.858;2022-10-23T04:01:30;13.93;;;11.00;;
6033;SDS011;3045;43.226;27.858;2022-10-23T04:03:57;16.50;;;10.60;;
6033;SDS011;3045;43.226;27.858;2022-10-23T04:06:24;16.33;;;14.63;;
6033;SDS011;3045;43.226;27.858;2022-10-23T04:08:52;16.53;;;14.83;;
6033;SDS011;3045;43.226;27.858;2022-10-23T04:11:20;24.70;;;15.13;;
6033;SDS011;3045;43.226;27.858;2022-10-23T04:13:47;25.93;;;17.27;;
6033;SDS011;3045;43.226;27.858;2022-10-23T04:16:14;21.50;;;16.60;;
6033;SDS011;3045;43.226;27.858;2022-10-23T04:18:41;26.20;;;16.70;;
6033;SDS011;3045;43.226;27.858;2022-10-23T04:21:09;28.33;;;17.30;;
6033;SDS011;3045;43.226;27.858;2022-10-23T04:23:36;32.40;;;17.43;;
6033;SDS011;3045;43.226;27.858;2022-10-23T04:26:03;22.17;;;15.83;;
6033;SDS011;3045;43.226;27.858;2022-10-23T04:28:31;22.80;;;16.43;;
6033;SDS011;3045;43.226;27.858;2022-10-23T04:30:58;23.10;;;15.57;;
6033;SDS011;3045;43.226;27.858;2022-10-23T04:33:25;24.60;;;15.70;;
6033;SDS011;3045;43.226;27.858;2022-10-23T04:35:53;28.20;;;16.70;;
6033;SDS011;3045;43.226;27.858;2022-10-23T04:38:19;29.27;;;16.70;;
6033;SDS011;3045;43.226;27.858;2022-10-23T04:40:46;25.57;;;15.93;;
6033;SDS011;3045;43.226;27.858;2022-10-23T04:43:13;24.93;;;15.47;;
6033;SDS011;3045;43.226;27.858;2022-10-23T04:45:42;21.90;;;16.47;;
6033;SDS011;3045;43.226;27.858;2022-10-23T04:48:08;24.57;;;16.47;;
6033;SDS011;3045;43.226;27.858;2022-10-23T04:50:35;26.60;;;16.20;;
6033;SDS011;3045;43.226;27.858;2022-10-23T04:53:02;28.97;;;15.93;;
6033;SDS011;3045;43.226;27.858;2022-10-23T04:55:29;22.50;;;15.13;;
6033;SDS011;3045;43.226;27.858;2022-10-23T04:57:56;27.03;;;15.47;;
6033;SDS011;3045;43.226;27.858;2022-10-23T05:00:23;22.57;;;14.90;;
6033;SDS011;3045;43.226;27.858;2022-10-23T05:02:51;28.57;;;15.27;;
6033;SDS011;3045;43.226;27.858;2022-10-23T05:05:18;20.87;;;14.23;;
6033;SDS011;3045;43.226;27.858;2022-10-23T05:07:45;17.87;;;13.83;;
6033;SDS011;3045;43.226;27.858;2022-10-23T05:10:12;22.40;;;13.83;;
6033;SDS011;3045;43.226;27.858;2022-10-23T05:12:39;26.17;;;15.27;;
6033;SDS011;3045;43.226;27.858;2022-10-23T05:15:06;17.70;;;14.00;;
6033;SDS011;3045;43.226;27.858;2022-10-23T05:17:33;20.33;;;13.03;;
6033;SDS011;3045;43.226;27.858;2022-10-23T05:20:06;24.07;;;15.03;;
6033;SDS011;3045;43.226;27.858;2022-10-23T05:22:37;18.33;;;14.07;;
6033;SDS011;3045;43.226;27.858;2022-10-23T05:25:06;15.17;;;11.10;;
6033;SDS011;3045;43.226;27.858;2022-10-23T05:27:34;14.90;;;11.93;;
6033;SDS011;3045;43.226;27.858;2022-10-23T05:30:02;14.90;;;11.67;;
6033;SDS011;3045;43.226;27.858;2022-10-23T05:32:30;13.17;;;11.80;;
6033;SDS011;3045;43.226;27.858;2022-10-23T05:34:58;12.90;;;11.60;;
6033;SDS011;3045;43.226;27.858;2022-10-23T05:37:29;20.97;;;11.50;;
6033;SDS011;3045;43.226;27.858;2022-10-23T05:39:57;12.83;;;9.77;;
6033;SDS011;3045;43.226;27.858;2022-10-23T05:42:24;14.03;;;9.97;;
6033;SDS011;3045;43.226;27.858;2022-10-23T05:44:50;17.53;;;10.43;;
6033;SDS011;3045;43.226;27.858;2022-10-23T05:47:17;13.43;;;9.00;;
6033;SDS011;3045;43.226;27.858;2022-10-23T05:49:44;12.73;;;8.27;;
6033;SDS011;3045;43.226;27.858;2022-10-23T05:52:11;11.70;;;6.87;;
6033;SDS011;3045;43.226;27.858;2022-10-23T05:54:39;8.07;;;6.60;;
6033;SDS011;3045;43.226;27.858;2022-10-23T05:57:06;13.30;;;6.40;;
6033;SDS011;3045;43.226;27.858;2022-10-23T05:59:33;14.30;;;6.57;;
6033;SDS011;3045;43.226;27.858;2022-10-23T06:02:00;17.90;;;7.13;;
6033;SDS011;3045;43.226;27.858;2022-10-23T06:04:27;19.80;;;6.27;;
6033;SDS011;3045;43.226;27.858;2022-10-23T06:06:54;12.53;;;6.50;;
6033;SDS011;3045;43.226;27.858;2022-10-23T06:09:20;15.30;;;6.73;;
6033;SDS011;3045;43.226;27.858;2022-10-23T06:11:49;6.77;;;5.90;;
6033;SDS011;3045;43.226;27.858;2022-10-23T06:14:16;8.17;;;6.30;;
6033;SDS011;3045;43.226;27.858;2022-10-23T06:16:42;13.23;;;6.30;;
6033;SDS011;3045;43.226;27.858;2022-10-23T06:19:09;14.53;;;6.57;;
6033;SDS011;3045;43.226;27.858;2022-10-23T06:21:37;14.53;;;6.50;;
6033;SDS011;3045;43.226;27.858;2022-10-23T06:24:04;9.83;;;6.87;;
6033;SDS011;3045;43.226;27.858;2022-10-23T06:26:32;22.77;;;6.20;;
6033;SDS011;3045;43.226;27.858;2022-10-23T06:29:01;11.30;;;7.10;;
6033;SDS011;3045;43.226;27.858;2022-10-23T06:31:28;10.83;;;6.80;;
6033;SDS011;3045;43.226;27.858;2022-10-23T06:33:56;11.57;;;6.33;;
6033;SDS011;3045;43.226;27.858;2022-10-23T06:36:23;6.93;;;6.33;;
6033;SDS011;3045;43.226;27.858;2022-10-23T06:38:51;9.73;;;6.13;;
6033;SDS011;3045;43.226;27.858;2022-10-23T06:41:20;7.43;;;6.30;;
6033;SDS011;3045;43.226;27.858;2022-10-23T06:43:48;7.60;;;6.73;;
6033;SDS011;3045;43.226;27.858;2022-10-23T06:46:17;18.43;;;7.23;;
6033;SDS011;3045;43.226;27.858;2022-10-23T06:48:45;10.77;;;6.40;;
6033;SDS011;3045;43.226;27.858;2022-10-23T06:51:12;18.73;;;6.90;;
6033;SDS011;3045;43.226;27.858;2022-10-23T06:53:41;38.45;;;7.55;;
6033;SDS011;3045;43.226;27.858;2022-10-23T06:56:09;40.10;;;8.38;;
6033;SDS011;3045;43.226;27.858;2022-10-23T06:58:37;26.23;;;7.35;;
6033;SDS011;3045;43.226;27.858;2022-10-23T07:01:05;23.08;;;7.45;;
6033;SDS011;3045;43.226;27.858;2022-10-23T07:03:35;16.42;;;6.43;;
6033;SDS011;3045;43.226;27.858;2022-10-23T07:06:03;28.65;;;7.13;;
6033;SDS011;3045;43.226;27.858;2022-10-23T07:08:33;23.38;;;7.15;;
6033;SDS011;3045;43.226;27.858;2022-10-23T07:11:01;20.48;;;7.07;;
6033;SDS011;3045;43.226;27.858;2022-10-23T07:13:30;26.92;;;7.47;;
6033;SDS011;3045;43.226;27.858;2022-10-23T07:15:57;21.95;;;6.82;;
6033;SDS011;3045;43.226;27.858;2022-10-23T07:18:24;36.72;;;7.28;;
6033;SDS011;3045;43.226;27.858;2022-10-23T07:20:57;19.08;;;6.57;;
6033;SDS011;3045;43.226;27.858;2022-10-23T07:23:24;16.23;;;7.22;;
6033;SDS011;3045;43.226;27.858;2022-10-23T07:25:51;15.60;;;7.43;;
6033;SDS011;3045;43.226;27.858;2022-10-23T07:28:18;20.88;;;6.25;;
6033;SDS011;3045;43.226;27.858;2022-10-23T07:30:54;22.83;;;6.78;;
6033;SDS011;3045;43.226;27.858;2022-10-23T07:33:21;13.73;;;7.28;;
6033;SDS011;3045;43.226;27.858;2022-10-23T07:35:48;10.10;;;6.07;;
6033;SDS011;3045;43.226;27.858;2022-10-23T07:38:16;21.98;;;7.35;;
6033;SDS011;3045;43.226;27.858;2022-10-23T07:40:43;7.07;;;6.53;;
6033;SDS011;3045;43.226;27.858;2022-10-23T07:43:10;8.40;;;6.60;;
6033;SDS011;3045;43.226;27.858;2022-10-23T07:45:37;10.60;;;6.22;;
6033;SDS011;3045;43.226;27.858;2022-10-23T07:48:04;14.52;;;6.85;;
6033;SDS011;3045;43.226;27.858;2022-10-23T07:50:31;10.82;;;6.18;;
6033;SDS011;3045;43.226;27.858;2022-10-23T07:52:58;9.13;;;6.10;;
6033;SDS011;3045;43.226;27.858;2022-10-23T07:55:26;10.90;;;6.07;;
6033;SDS011;3045;43.226;27.858;2022-10-23T07:57:53;16.00;;;5.85;;
6033;SDS011;3045;43.226;27.858;2022-10-23T08:00:20;11.57;;;5.78;;
6033;SDS011;3045;43.226;27.858;2022-10-23T08:02:47;10.98;;;5.57;;
6033;SDS011;3045;43.226;27.858;2022-10-23T08:05:17;5.65;;;5.25;;
6033;SDS011;3045;43.226;27.858;2022-10-23T08:07:45;19.60;;;5.15;;
6033;SDS011;3045;43.226;27.858;2022-10-23T08:10:12;7.70;;;4.85;;
6033;SDS011;3045;43.226;27.858;2022-10-23T08:12:40;16.45;;;5.15;;
6033;SDS011;3045;43.226;27.858;2022-10-23T08:15:08;6.57;;;5.07;;
6033;SDS011;3045;43.226;27.858;2022-10-23T08:17:35;6.82;;;4.78;;
6033;SDS011;3045;43.226;27.858;2022-10-23T08:20:03;5.20;;;4.72;;
6033;SDS011;3045;43.226;27.858;2022-10-23T08:22:31;6.53;;;4.32;;
6033;SDS011;3045;43.226;27.858;2022-10-23T08:25:00;5.28;;;4.60;;
6033;SDS011;3045;43.226;27.858;2022-10-23T08:27:27;5.45;;;4.78;;
6033;SDS011;3045;43.226;27.858;2022-10-23T08:29:56;8.30;;;4.47;;
6033;SDS011;3045;43.226;27.858;2022-10-23T08:32:22;6.15;;;4.45;;
6033;SDS011;3045;43.226;27.858;2022-10-23T08:34:49;6.95;;;4.45;;
6033;SDS011;3045;43.226;27.858;2022-10-23T08:37:16;8.23;;;4.95;;
6033;SDS011;3045;43.226;27.858;2022-10-23T08:39:43;6.03;;;4.88;;
6033;SDS011;3045;43.226;27.858;2022-10-23T08:42:16;6.07;;;4.93;;
6033;SDS011;3045;43.226;27.858;2022-10-23T08:44:49;5.07;;;4.78;;
6033;SDS011;3045;43.226;27.858;2022-10-23T08:47:24;5.30;;;4.80;;
6033;SDS011;3045;43.226;27.858;2022-10-23T08:49:59;4.75;;;4.35;;
6033;SDS011;3045;43.226;27.858;2022-10-23T08:52:30;7.15;;;4.63;;
6033;SDS011;3045;43.226;27.858;2022-10-23T08:55:04;4.78;;;4.47;;
6033;SDS011;3045;43.226;27.858;2022-10-23T08:57:40;11.98;;;4.35;;
6033;SDS011;3045;43.226;27.858;2022-10-23T09:00:12;4.65;;;4.28;;
6033;SDS011;3045;43.226;27.858;2022-10-23T09:02:42;8.40;;;4.60;;
6033;SDS011;3045;43.226;27.858;2022-10-23T09:05:13;4.70;;;4.25;;
6033;SDS011;3045;43.226;27.858;2022-10-23T09:07:46;8.32;;;4.22;;
6033;SDS011;3045;43.226;27.858;2022-10-23T09:10:33;8.80;;;4.47;;
6033;SDS011;3045;43.226;27.858;2022-10-23T09:13:19;8.70;;;3.95;;
6033;SDS011;3045;43.226;27.858;2022-10-23T09:15:59;5.18;;;4.03;;
6033;SDS011;3045;43.226;27.858;2022-10-23T09:18:33;4.65;;;4.35;;
6033;SDS011;3045;43.226;27.858;2022-10-23T09:21:00;4.30;;;4.10;;
6033;SDS011;3045;43.226;27.858;2022-10-23T09:23:28;4.45;;;4.00;;
6033;SDS011;3045;43.226;27.858;2022-10-23T09:25:54;4.43;;;4.07;;
6033;SDS011;3045;43.226;27.858;2022-10-23T09:28:22;4.30;;;4.10;;
6033;SDS011;3045;43.226;27.858;2022-10-23T09:30:50;4.38;;;4.03;;
6033;SDS011;3045;43.226;27.858;2022-10-23T09:33:19;4.57;;;4.28;;
6033;SDS011;3045;43.226;27.858;2022-10-23T09:35:56;4.03;;;3.72;;
6033;SDS011;3045;43.226;27.858;2022-10-23T09:38:26;5.13;;;4.40;;
6033;SDS011;3045;43.226;27.858;2022-10-23T09:40:55;4.28;;;3.97;;
6033;SDS011;3045;43.226;27.858;2022-10-23T09:43:24;6.50;;;3.95;;
6033;SDS011;3045;43.226;27.858;2022-10-23T09:45:55;5.18;;;3.85;;
6033;SDS011;3045;43.226;27.858;2022-10-23T09:48:24;3.67;;;3.47;;
6033;SDS011;3045;43.226;27.858;2022-10-23T09:50:52;5.38;;;3.60;;
6033;SDS011;3045;43.226;27.858;2022-10-23T09:53:24;3.50;;;3.20;;
6033;SDS011;3045;43.226;27.858;2022-10-23T09:55:58;5.43;;;3.25;;
6033;SDS011;3045;43.226;27.858;2022-10-23T09:58:29;4.22;;;3.60;;
6033;SDS011;3045;43.226;27.858;2022-10-23T10:00:59;4.10;;;3.45;;
6033;SDS011;3045;43.226;27.858;2022-10-23T10:03:26;4.47;;;3.58;;
6033;SDS011;3045;43.226;27.858;2022-10-23T10:05:54;4.70;;;3.55;;
6033;SDS011;3045;43.226;27.858;2022-10-23T10:08:26;3.20;;;3.10;;
6033;SDS011;3045;43.226;27.858;2022-10-23T10:10:59;4.07;;;3.80;;
6033;SDS011;3045;43.226;27.858;2022-10-23T10:13:46;3.55;;;3.33;;
6033;SDS011;3045;43.226;27.858;2022-10-23T10:16:23;4.00;;;3.72;;
6033;SDS011;3045;43.226;27.858;2022-10-23T10:19:01;5.53;;;3.30;;
6033;SDS011;3045;43.226;27.858;2022-10-23T10:21:32;3.25;;;3.15;;
6033;SDS011;3045;43.226;27.858;2022-10-23T10:24:10;5.72;;;3.53;;
6033;SDS011;3045;43.226;27.858;2022-10-23T10:26:43;3.70;;;3.40;;
6033;SDS011;3045;43.226;27.858;2022-10-23T10:29:21;3.60;;;3.42;;
6033;SDS011;3045;43.226;27.858;2022-10-23T10:31:58;3.15;;;3.03;;
6033;SDS011;3045;43.226;27.858;2022-10-23T10:34:33;3.65;;;3.38;;
6033;SDS011;3045;43.226;27.858;2022-10-23T10:37:12;3.70;;;3.50;;
6033;SDS011;3045;43.226;27.858;2022-10-23T10:39:48;3.72;;;3.47;;
6033;SDS011;3045;43.226;27.858;2022-10-23T10:42:30;3.33;;;3.10;;
6033;SDS011;3045;43.226;27.858;2022-10-23T10:45:19;5.75;;;3.42;;
6033;SDS011;3045;43.226;27.858;2022-10-23T10:51:04;3.50;;;3.30;;
6033;SDS011;3045;43.226;27.858;2022-10-23T10:53:38;3.40;;;3.15;;
6033;SDS011;3045;43.226;27.858;2022-10-23T10:56:18;3.22;;;3.10;;
6033;SDS011;3045;43.226;27.858;2022-10-23T10:58:49;7.25;;;3.35;;
6033;SDS011;3045;43.226;27.858;2022-10-23T11:01:21;3.40;;;2.97;;
6033;SDS011;3045;43.226;27.858;2022-10-23T11:03:53;3.97;;;3.05;;
6033;SDS011;3045;43.226;27.858;2022-10-23T11:06:25;4.88;;;3.00;;
6033;SDS011;3045;43.226;27.858;2022-10-23T11:08:56;3.17;;;2.97;;
6033;SDS011;3045;43.226;27.858;2022-10-23T11:11:32;6.38;;;3.25;;
6033;SDS011;3045;43.226;27.858;2022-10-23T11:14:04;3.38;;;3.03;;
6033;SDS011;3045;43.226;27.858;2022-10-23T11:16:33;3.45;;;3.25;;
6033;SDS011;3045;43.226;27.858;2022-10-23T11:19:04;3.10;;;3.00;;
6033;SDS011;3045;43.226;27.858;2022-10-23T11:21:39;5.85;;;3.60;;
6033;SDS011;3045;43.226;27.858;2022-10-23T11:24:19;2.92;;;2.78;;
6033;SDS011;3045;43.226;27.858;2022-10-23T11:27:12;3.15;;;2.95;;
6033;SDS011;3045;43.226;27.858;2022-10-23T11:32:46;4.03;;;2.97;;
6033;SDS011;3045;43.226;27.858;2022-10-23T11:35:41;3.30;;;3.10;;
6033;SDS011;3045;43.226;27.858;2022-10-23T11:38:16;3.00;;;2.90;;
6033;SDS011;3045;43.226;27.858;2022-10-23T11:40:45;3.38;;;3.03;;
6033;SDS011;3045;43.226;27.858;2022-10-23T11:43:25;2.75;;;2.53;;
6033;SDS011;3045;43.226;27.858;2022-10-23T11:45:54;2.92;;;2.72;;
6033;SDS011;3045;43.226;27.858;2022-10-23T11:48:21;2.95;;;2.75;;
6033;SDS011;3045;43.226;27.858;2022-10-23T11:51:03;3.08;;;2.97;;
6033;SDS011;3045;43.226;27.858;2022-10-23T11:53:37;3.00;;;2.80;;
6033;SDS011;3045;43.226;27.858;2022-10-23T11:58:53;3.15;;;2.90;;
6033;SDS011;3045;43.226;27.858;2022-10-23T12:01:25;2.88;;;2.78;;
6033;SDS011;3045;43.226;27.858;2022-10-23T12:03:58;2.70;;;2.60;;
6033;SDS011;3045;43.226;27.858;2022-10-23T12:06:27;2.80;;;2.55;;
6033;SDS011;3045;43.226;27.858;2022-10-23T12:08:58;2.50;;;2.40;;
6033;SDS011;3045;43.226;27.858;2022-10-23T12:11:28;3.03;;;2.72;;
6033;SDS011;3045;43.226;27.858;2022-10-23T12:16:55;2.30;;;2.20;;
6033;SDS011;3045;43.226;27.858;2022-10-23T12:19:23;2.42;;;2.33;;
6033;SDS011;3045;43.226;27.858;2022-10-23T12:21:52;2.28;;;2.08;;
6033;SDS011;3045;43.226;27.858;2022-10-23T12:24:26;2.30;;;2.20;;
6033;SDS011;3045;43.226;27.858;2022-10-23T12:27:13;6.18;;;2.25;;
6033;SDS011;3045;43.226;27.858;2022-10-23T12:29:59;2.85;;;2.03;;
6033;SDS011;3045;43.226;27.858;2022-10-23T12:32:41;3.42;;;2.20;;
6033;SDS011;3045;43.226;27.858;2022-10-23T12:35:32;2.30;;;2.10;;
6033;SDS011;3045;43.226;27.858;2022-10-23T12:38:13;2.08;;;1.98;;
6033;SDS011;3045;43.226;27.858;2022-10-23T12:40:43;2.00;;;1.90;;
6033;SDS011;3045;43.226;27.858;2022-10-23T12:43:24;2.08;;;1.80;;
6033;SDS011;3045;43.226;27.858;2022-10-23T12:45:54;2.30;;;2.10;;
6033;SDS011;3045;43.226;27.858;2022-10-23T12:48:23;2.40;;;2.30;;
6033;SDS011;3045;43.226;27.858;2022-10-23T12:50:52;3.50;;;2.40;;
6033;SDS011;3045;43.226;27.858;2022-10-23T12:53:20;3.33;;;1.73;;
6033;SDS011;3045;43.226;27.858;2022-10-23T12:55:50;2.00;;;1.90;;
6033;SDS011;3045;43.226;27.858;2022-10-23T12:58:20;2.20;;;2.10;;
6033;SDS011;3045;43.226;27.858;2022-10-23T13:00:50;3.80;;;1.70;;
6033;SDS011;3045;43.226;27.858;2022-10-23T13:03:20;3.63;;;2.30;;
6033;SDS011;3045;43.226;27.858;2022-10-23T13:05:49;2.70;;;2.60;;
6033;SDS011;3045;43.226;27.858;2022-10-23T13:08:17;2.38;;;2.28;;
6033;SDS011;3045;43.226;27.858;2022-10-23T13:10:46;2.47;;;2.38;;
6033;SDS011;3045;43.226;27.858;2022-10-23T13:13:16;2.55;;;2.45;;
6033;SDS011;3045;43.226;27.858;2022-10-23T13:15:48;4.07;;;2.70;;
6033;SDS011;3045;43.226;27.858;2022-10-23T13:18:15;3.42;;;2.72;;
6033;SDS011;3045;43.226;27.858;2022-10-23T13:20:55;2.45;;;2.25;;
6033;SDS011;3045;43.226;27.858;2022-10-23T13:23:23;2.20;;;2.10;;
6033;SDS011;3045;43.226;27.858;2022-10-23T13:25:55;2.78;;;2.67;;
6033;SDS011;3045;43.226;27.858;2022-10-23T13:28:24;2.60;;;2.50;;
6033;SDS011;3045;43.226;27.858;2022-10-23T13:30:57;2.88;;;2.35;;
6033;SDS011;3045;43.226;27.858;2022-10-23T13:33:42;2.55;;;2.45;;
6033;SDS011;3045;43.226;27.858;2022-10-23T13:36:21;2.15;;;2.05;;
6033;SDS011;3045;43.226;27.858;2022-10-23T13:38:58;2.72;;;2.38;;
6033;SDS011;3045;43.226;27.858;2022-10-23T13:41:27;2.38;;;2.10;;
6033;SDS011;3045;43.226;27.858;2022-10-23T13:43:59;2.30;;;2.10;;
6033;SDS011;3045;43.226;27.858;2022-10-23T13:46:25;2.28;;;2.17;;
6033;SDS011;3045;43.226;27.858;2022-10-23T13:48:53;2.10;;;2.00;;
6033;SDS011;3045;43.226;27.858;2022-10-23T13:51:22;2.78;;;1.92;;
6033;SDS011;3045;43.226;27.858;2022-10-23T13:53:51;2.10;;;1.60;;
6033;SDS011;3045;43.226;27.858;2022-10-23T13:56:19;1.30;;;1.30;;
6033;SDS011;3045;43.226;27.858;2022-10-23T13:58:47;1.83;;;1.73;;
6033;SDS011;3045;43.226;27.858;2022-10-23T14:01:16;4.10;;;1.90;;
6033;SDS011;3045;43.226;27.858;2022-10-23T14:03:47;2.83;;;1.70;;
6033;SDS011;3045;43.226;27.858;2022-10-23T14:06:14;1.55;;;1.45;;
6033;SDS011;3045;43.226;27.858;2022-10-23T14:08:42;1.40;;;1.25;;
6033;SDS011;3045;43.226;27.858;2022-10-23T14:11:10;1.77;;;1.45;;
6033;SDS011;3045;43.226;27.858;2022-10-23T14:13:38;6.75;;;1.50;;
6033;SDS011;3045;43.226;27.858;2022-10-23T14:16:05;1.67;;;1.55;;
6033;SDS011;3045;43.226;27.858;2022-10-23T14:18:33;1.48;;;1.38;;
6033;SDS011;3045;43.226;27.858;2022-10-23T14:21:00;1.50;;;1.40;;
6033;SDS011;3045;43.226;27.858;2022-10-23T14:23:28;1.45;;;1.38;;
6033;SDS011;3045;43.226;27.858;2022-10-23T14:26:01;1.88;;;1.40;;
6033;SDS011;3045;43.226;27.858;2022-10-23T14:28:28;1.95;;;1.50;;
6033;SDS011;3045;43.226;27.858;2022-10-23T14:30:55;4.72;;;1.40;;
6033;SDS011;3045;43.226;27.858;2022-10-23T14:33:22;1.65;;;1.55;;
6033;SDS011;3045;43.226;27.858;2022-10-23T14:35:49;1.65;;;1.42;;
6033;SDS011;3045;43.226;27.858;2022-10-23T14:38:17;1.45;;;1.35;;
6033;SDS011;3045;43.226;27.858;2022-10-23T14:40:44;1.55;;;1.30;;
6033;SDS011;3045;43.226;27.858;2022-10-23T14:43:12;1.20;;;1.20;;
6033;SDS011;3045;43.226;27.858;2022-10-23T14:45:39;1.38;;;1.27;;
6033;SDS011;3045;43.226;27.858;2022-10-23T14:48:06;1.95;;;1.85;;
6033;SDS011;3045;43.226;27.858;2022-10-23T14:50:33;2.17;;;1.50;;
6033;SDS011;3045;43.226;27.858;2022-10-23T14:53:01;1.17;;;1.17;;
6033;SDS011;3045;43.226;27.858;2022-10-23T14:55:29;1.30;;;1.30;;
6033;SDS011;3045;43.226;27.858;2022-10-23T14:57:56;1.33;;;1.27;;
6033;SDS011;3045;43.226;27.858;2022-10-23T15:00:24;1.33;;;1.25;;
6033;SDS011;3045;43.226;27.858;2022-10-23T15:02:51;1.55;;;1.45;;
6033;SDS011;3045;43.226;27.858;2022-10-23T15:05:18;1.60;;;1.23;;
6033;SDS011;3045;43.226;27.858;2022-10-23T15:07:45;2.50;;;1.90;;
6033;SDS011;3045;43.226;27.858;2022-10-23T15:10:12;2.58;;;1.38;;
6033;SDS011;3045;43.226;27.858;2022-10-23T15:12:39;1.35;;;1.33;;
6033;SDS011;3045;43.226;27.858;2022-10-23T15:15:06;1.52;;;1.40;;
6033;SDS011;3045;43.226;27.858;2022-10-23T15:17:35;7.50;;;1.75;;
6033;SDS011;3045;43.226;27.858;2022-10-23T15:20:03;3.70;;;1.90;;
6033;SDS011;3045;43.226;27.858;2022-10-23T15:22:32;3.88;;;2.08;;